Terminal Aerodrome Forecast
Issued by NWS

Current Version | Previous Version | Graphics & Text | Print | Product List | Glossary On
Versions: 1 2 3 4 5 6 7 8 9 10 11 12 13 14 15 16 17 18 19 20
000
FTUS41 KILN 230547
TAFLCK
TAF
KLCK 230547Z 2306/2406 00000KT P6SM OVC060
     FM230800 00000KT 5SM BR BKN025
     FM231300 21004KT P6SM SCT025
     FM231800 24007KT P6SM VCSH BKN035
     FM232000 28005KT P6SM -SHRA VCTS BKN025CB
      TEMPO 2321/2401 5SM -TSRA
     FM240300 33004KT P6SM VCSH BKN025=

USA.gov is the U.S. government's official web portal to all federal, state and local government web resources and services.